sensor_id;sensor_type;location;lat;lon;timestamp;P1;durP1;ratioP1;P2;durP2;ratioP2
6394;SDS011;3230;42.588;23.358;2022-12-04T00:01:35;23.63;;;10.67;;
6394;SDS011;3230;42.588;23.358;2022-12-04T00:04:01;24.40;;;10.20;;
6394;SDS011;3230;42.588;23.358;2022-12-04T00:06:26;28.27;;;13.43;;
6394;SDS011;3230;42.588;23.358;2022-12-04T00:08:53;30.63;;;14.15;;
6394;SDS011;3230;42.588;23.358;2022-12-04T00:11:20;20.30;;;11.30;;
6394;SDS011;3230;42.588;23.358;2022-12-04T00:13:48;20.77;;;10.68;;
6394;SDS011;3230;42.588;23.358;2022-12-04T00:16:15;18.90;;;10.65;;
6394;SDS011;3230;42.588;23.358;2022-12-04T00:18:43;17.65;;;10.20;;
6394;SDS011;3230;42.588;23.358;2022-12-04T00:21:10;21.57;;;12.20;;
6394;SDS011;3230;42.588;23.358;2022-12-04T00:23:37;16.50;;;8.95;;
6394;SDS011;3230;42.588;23.358;2022-12-04T00:26:04;20.00;;;10.40;;
6394;SDS011;3230;42.588;23.358;2022-12-04T00:28:32;13.93;;;7.95;;
6394;SDS011;3230;42.588;23.358;2022-12-04T00:30:58;23.45;;;11.07;;
6394;SDS011;3230;42.588;23.358;2022-12-04T00:33:24;16.23;;;9.20;;
6394;SDS011;3230;42.588;23.358;2022-12-04T00:35:59;21.23;;;11.30;;
6394;SDS011;3230;42.588;23.358;2022-12-04T00:38:26;15.65;;;7.90;;
6394;SDS011;3230;42.588;23.358;2022-12-04T00:40:52;13.73;;;8.30;;
6394;SDS011;3230;42.588;23.358;2022-12-04T00:43:19;19.20;;;10.52;;
6394;SDS011;3230;42.588;23.358;2022-12-04T00:45:45;22.02;;;9.52;;
6394;SDS011;3230;42.588;23.358;2022-12-04T00:48:10;18.60;;;9.57;;
6394;SDS011;3230;42.588;23.358;2022-12-04T00:50:36;18.57;;;9.00;;
6394;SDS011;3230;42.588;23.358;2022-12-04T00:53:02;15.33;;;8.83;;
6394;SDS011;3230;42.588;23.358;2022-12-04T00:55:28;18.43;;;9.50;;
6394;SDS011;3230;42.588;23.358;2022-12-04T00:57:53;25.40;;;11.50;;
6394;SDS011;3230;42.588;23.358;2022-12-04T01:00:18;19.63;;;10.87;;
6394;SDS011;3230;42.588;23.358;2022-12-04T01:02:44;27.93;;;13.10;;
6394;SDS011;3230;42.588;23.358;2022-12-04T01:05:10;21.33;;;9.57;;
6394;SDS011;3230;42.588;23.358;2022-12-04T01:07:36;24.33;;;10.70;;
6394;SDS011;3230;42.588;23.358;2022-12-04T01:10:03;21.63;;;10.00;;
6394;SDS011;3230;42.588;23.358;2022-12-04T01:12:31;18.23;;;9.32;;
6394;SDS011;3230;42.588;23.358;2022-12-04T01:14:56;22.07;;;11.00;;
6394;SDS011;3230;42.588;23.358;2022-12-04T01:17:22;18.37;;;9.77;;
6394;SDS011;3230;42.588;23.358;2022-12-04T01:19:47;16.57;;;8.40;;
6394;SDS011;3230;42.588;23.358;2022-12-04T01:22:13;19.10;;;8.70;;
6394;SDS011;3230;42.588;23.358;2022-12-04T01:24:38;14.57;;;8.00;;
6394;SDS011;3230;42.588;23.358;2022-12-04T01:27:04;10.60;;;4.37;;
6394;SDS011;3230;42.588;23.358;2022-12-04T01:29:29;9.27;;;5.37;;
6394;SDS011;3230;42.588;23.358;2022-12-04T01:31:55;11.10;;;5.70;;
6394;SDS011;3230;42.588;23.358;2022-12-04T01:34:20;9.90;;;6.00;;
6394;SDS011;3230;42.588;23.358;2022-12-04T01:36:46;8.13;;;5.43;;
6394;SDS011;3230;42.588;23.358;2022-12-04T01:39:12;10.65;;;5.88;;
6394;SDS011;3230;42.588;23.358;2022-12-04T01:41:37;9.90;;;6.00;;
6394;SDS011;3230;42.588;23.358;2022-12-04T01:46:41;14.57;;;6.65;;
6394;SDS011;3230;42.588;23.358;2022-12-04T01:49:09;12.75;;;6.70;;
6394;SDS011;3230;42.588;23.358;2022-12-04T01:51:39;9.35;;;4.78;;
6394;SDS011;3230;42.588;23.358;2022-12-04T01:54:09;9.73;;;5.75;;
6394;SDS011;3230;42.588;23.358;2022-12-04T01:56:43;11.07;;;5.47;;
6394;SDS011;3230;42.588;23.358;2022-12-04T01:59:14;14.25;;;6.32;;
6394;SDS011;3230;42.588;23.358;2022-12-04T02:01:47;16.38;;;6.60;;
6394;SDS011;3230;42.588;23.358;2022-12-04T02:04:21;12.02;;;6.25;;
6394;SDS011;3230;42.588;23.358;2022-12-04T02:06:47;12.00;;;6.53;;
6394;SDS011;3230;42.588;23.358;2022-12-04T02:09:12;14.03;;;6.47;;
6394;SDS011;3230;42.588;23.358;2022-12-04T02:14:47;7.13;;;5.00;;
6394;SDS011;3230;42.588;23.358;2022-12-04T02:25:47;7.53;;;4.78;;
6394;SDS011;3230;42.588;23.358;2022-12-04T02:28:34;13.50;;;6.38;;
6394;SDS011;3230;42.588;23.358;2022-12-04T02:31:03;7.88;;;4.45;;
6394;SDS011;3230;42.588;23.358;2022-12-04T02:33:38;6.72;;;4.10;;
6394;SDS011;3230;42.588;23.358;2022-12-04T02:36:13;8.75;;;5.38;;
6394;SDS011;3230;42.588;23.358;2022-12-04T02:38:55;28.05;;;14.95;;
6394;SDS011;3230;42.588;23.358;2022-12-04T02:41:35;15.02;;;8.43;;
6394;SDS011;3230;42.588;23.358;2022-12-04T02:44:22;22.05;;;12.82;;
6394;SDS011;3230;42.588;23.358;2022-12-04T02:46:55;11.38;;;7.55;;
6394;SDS011;3230;42.588;23.358;2022-12-04T02:52:22;3.50;;;2.85;;
6394;SDS011;3230;42.588;23.358;2022-12-04T02:54:56;2.92;;;2.38;;
6394;SDS011;3230;42.588;23.358;2022-12-04T02:57:29;2.88;;;2.63;;
6394;SDS011;3230;42.588;23.358;2022-12-04T02:59:59;2.38;;;2.17;;
6394;SDS011;3230;42.588;23.358;2022-12-04T03:08:08;2.20;;;2.00;;
6394;SDS011;3230;42.588;23.358;2022-12-04T03:10:38;2.00;;;1.90;;
6394;SDS011;3230;42.588;23.358;2022-12-04T03:13:15;2.47;;;1.92;;
6394;SDS011;3230;42.588;23.358;2022-12-04T03:15:53;2.67;;;2.05;;
6394;SDS011;3230;42.588;23.358;2022-12-04T03:19:01;2.22;;;2.03;;
6394;SDS011;3230;42.588;23.358;2022-12-04T03:21:34;2.05;;;1.90;;
6394;SDS011;3230;42.588;23.358;2022-12-04T03:24:05;1.75;;;1.65;;
6394;SDS011;3230;42.588;23.358;2022-12-04T03:26:42;2.33;;;2.10;;
6394;SDS011;3230;42.588;23.358;2022-12-04T03:37:25;2.97;;;2.60;;
6394;SDS011;3230;42.588;23.358;2022-12-04T03:42:46;3.42;;;2.15;;
6394;SDS011;3230;42.588;23.358;2022-12-04T03:48:26;3.42;;;2.05;;
6394;SDS011;3230;42.588;23.358;2022-12-04T03:51:05;2.38;;;2.17;;
6394;SDS011;3230;42.588;23.358;2022-12-04T03:53:40;5.43;;;3.80;;
6394;SDS011;3230;42.588;23.358;2022-12-04T03:56:14;2.92;;;2.60;;
6394;SDS011;3230;42.588;23.358;2022-12-04T03:58:48;2.40;;;2.20;;
6394;SDS011;3230;42.588;23.358;2022-12-04T04:01:19;6.00;;;4.28;;
6394;SDS011;3230;42.588;23.358;2022-12-04T04:03:49;4.65;;;3.80;;
6394;SDS011;3230;42.588;23.358;2022-12-04T04:06:19;2.55;;;2.35;;
6394;SDS011;3230;42.588;23.358;2022-12-04T04:08:54;8.95;;;5.05;;
6394;SDS011;3230;42.588;23.358;2022-12-04T04:11:42;1.88;;;1.70;;
6394;SDS011;3230;42.588;23.358;2022-12-04T04:17:18;7.50;;;3.63;;
6394;SDS011;3230;42.588;23.358;2022-12-04T04:20:11;11.00;;;5.68;;
6394;SDS011;3230;42.588;23.358;2022-12-04T04:23:04;6.75;;;4.40;;
6394;SDS011;3230;42.588;23.358;2022-12-04T04:25:51;2.42;;;2.22;;
6394;SDS011;3230;42.588;23.358;2022-12-04T04:28:25;2.22;;;2.03;;
6394;SDS011;3230;42.588;23.358;2022-12-04T04:30:52;6.20;;;4.35;;
6394;SDS011;3230;42.588;23.358;2022-12-04T04:33:23;7.60;;;4.35;;
6394;SDS011;3230;42.588;23.358;2022-12-04T04:35:56;2.20;;;2.00;;
6394;SDS011;3230;42.588;23.358;2022-12-04T04:43:50;3.25;;;2.55;;
6394;SDS011;3230;42.588;23.358;2022-12-04T04:46:34;5.70;;;4.00;;
6394;SDS011;3230;42.588;23.358;2022-12-04T04:49:03;5.63;;;3.80;;
6394;SDS011;3230;42.588;23.358;2022-12-04T04:51:33;3.33;;;2.60;;
6394;SDS011;3230;42.588;23.358;2022-12-04T04:54:00;3.35;;;2.45;;
6394;SDS011;3230;42.588;23.358;2022-12-04T04:56:29;4.28;;;3.22;;
6394;SDS011;3230;42.588;23.358;2022-12-04T04:58:55;3.50;;;2.70;;
6394;SDS011;3230;42.588;23.358;2022-12-04T05:01:26;6.27;;;3.20;;
6394;SDS011;3230;42.588;23.358;2022-12-04T05:03:52;4.20;;;3.10;;
6394;SDS011;3230;42.588;23.358;2022-12-04T05:06:18;4.07;;;3.50;;
6394;SDS011;3230;42.588;23.358;2022-12-04T05:08:43;3.43;;;2.67;;
6394;SDS011;3230;42.588;23.358;2022-12-04T05:11:12;4.77;;;3.73;;
6394;SDS011;3230;42.588;23.358;2022-12-04T05:13:39;5.25;;;4.00;;
6394;SDS011;3230;42.588;23.358;2022-12-04T05:16:06;2.28;;;2.08;;
6394;SDS011;3230;42.588;23.358;2022-12-04T05:18:34;4.80;;;3.03;;
6394;SDS011;3230;42.588;23.358;2022-12-04T05:21:06;4.10;;;2.97;;
6394;SDS011;3230;42.588;23.358;2022-12-04T05:23:33;6.00;;;4.15;;
6394;SDS011;3230;42.588;23.358;2022-12-04T05:25:59;4.00;;;3.07;;
6394;SDS011;3230;42.588;23.358;2022-12-04T05:28:25;2.83;;;2.63;;
6394;SDS011;3230;42.588;23.358;2022-12-04T05:30:55;6.00;;;4.03;;
6394;SDS011;3230;42.588;23.358;2022-12-04T05:33:25;3.75;;;3.35;;
6394;SDS011;3230;42.588;23.358;2022-12-04T05:36:01;3.50;;;2.60;;
6394;SDS011;3230;42.588;23.358;2022-12-04T05:38:31;2.60;;;2.40;;
6394;SDS011;3230;42.588;23.358;2022-12-04T05:40:57;3.60;;;2.87;;
6394;SDS011;3230;42.588;23.358;2022-12-04T05:43:23;3.03;;;2.70;;
6394;SDS011;3230;42.588;23.358;2022-12-04T05:45:48;4.43;;;3.53;;
6394;SDS011;3230;42.588;23.358;2022-12-04T05:48:14;4.10;;;3.00;;
6394;SDS011;3230;42.588;23.358;2022-12-04T05:50:39;2.97;;;2.33;;
6394;SDS011;3230;42.588;23.358;2022-12-04T05:53:05;2.90;;;2.40;;
6394;SDS011;3230;42.588;23.358;2022-12-04T05:55:30;3.90;;;3.23;;
6394;SDS011;3230;42.588;23.358;2022-12-04T05:57:56;4.17;;;3.40;;
6394;SDS011;3230;42.588;23.358;2022-12-04T06:00:21;5.40;;;3.80;;
6394;SDS011;3230;42.588;23.358;2022-12-04T06:02:47;6.10;;;5.00;;
6394;SDS011;3230;42.588;23.358;2022-12-04T06:05:12;6.20;;;4.40;;
6394;SDS011;3230;42.588;23.358;2022-12-04T06:07:38;4.70;;;3.90;;
6394;SDS011;3230;42.588;23.358;2022-12-04T06:10:04;5.67;;;3.80;;
6394;SDS011;3230;42.588;23.358;2022-12-04T06:12:30;9.85;;;5.88;;
6394;SDS011;3230;42.588;23.358;2022-12-04T06:14:55;6.00;;;4.10;;
6394;SDS011;3230;42.588;23.358;2022-12-04T06:17:21;4.93;;;3.70;;
6394;SDS011;3230;42.588;23.358;2022-12-04T06:19:46;4.53;;;3.80;;
6394;SDS011;3230;42.588;23.358;2022-12-04T06:22:12;4.10;;;3.17;;
6394;SDS011;3230;42.588;23.358;2022-12-04T06:24:37;5.07;;;3.80;;
6394;SDS011;3230;42.588;23.358;2022-12-04T06:27:03;3.63;;;3.03;;
6394;SDS011;3230;42.588;23.358;2022-12-04T06:29:29;3.60;;;3.30;;
6394;SDS011;3230;42.588;23.358;2022-12-04T06:31:54;4.23;;;3.40;;
6394;SDS011;3230;42.588;23.358;2022-12-04T06:34:20;5.20;;;3.40;;
6394;SDS011;3230;42.588;23.358;2022-12-04T06:36:45;4.60;;;3.77;;
6394;SDS011;3230;42.588;23.358;2022-12-04T06:39:11;5.10;;;3.97;;
6394;SDS011;3230;42.588;23.358;2022-12-04T06:41:36;5.37;;;3.73;;
6394;SDS011;3230;42.588;23.358;2022-12-04T06:44:02;5.10;;;3.20;;
6394;SDS011;3230;42.588;23.358;2022-12-04T06:46:28;8.60;;;3.83;;
6394;SDS011;3230;42.588;23.358;2022-12-04T06:48:55;4.68;;;3.20;;
6394;SDS011;3230;42.588;23.358;2022-12-04T06:51:32;14.80;;;6.18;;
6394;SDS011;3230;42.588;23.358;2022-12-04T06:54:00;10.13;;;5.20;;
6394;SDS011;3230;42.588;23.358;2022-12-04T06:56:27;11.87;;;5.30;;
6394;SDS011;3230;42.588;23.358;2022-12-04T06:58:55;14.93;;;5.25;;
6394;SDS011;3230;42.588;23.358;2022-12-04T07:01:23;30.38;;;9.27;;
6394;SDS011;3230;42.588;23.358;2022-12-04T07:03:50;12.90;;;6.03;;
6394;SDS011;3230;42.588;23.358;2022-12-04T07:06:20;6.68;;;4.60;;
6394;SDS011;3230;42.588;23.358;2022-12-04T07:08:52;8.60;;;5.15;;
6394;SDS011;3230;42.588;23.358;2022-12-04T07:11:19;4.18;;;3.35;;
6394;SDS011;3230;42.588;23.358;2022-12-04T07:13:46;6.45;;;4.75;;
6394;SDS011;3230;42.588;23.358;2022-12-04T07:16:12;4.05;;;3.60;;
6394;SDS011;3230;42.588;23.358;2022-12-04T07:18:39;7.43;;;4.68;;
6394;SDS011;3230;42.588;23.358;2022-12-04T07:21:09;4.00;;;3.60;;
6394;SDS011;3230;42.588;23.358;2022-12-04T07:23:37;4.40;;;2.85;;
6394;SDS011;3230;42.588;23.358;2022-12-04T07:26:07;5.90;;;4.10;;
6394;SDS011;3230;42.588;23.358;2022-12-04T07:28:35;5.97;;;3.28;;
6394;SDS011;3230;42.588;23.358;2022-12-04T07:31:02;4.72;;;3.50;;
6394;SDS011;3230;42.588;23.358;2022-12-04T07:33:31;8.43;;;5.20;;
6394;SDS011;3230;42.588;23.358;2022-12-04T07:35:57;8.80;;;4.60;;
6394;SDS011;3230;42.588;23.358;2022-12-04T07:38:24;5.40;;;3.30;;
6394;SDS011;3230;42.588;23.358;2022-12-04T07:40:50;11.03;;;6.30;;
6394;SDS011;3230;42.588;23.358;2022-12-04T07:43:15;10.33;;;6.80;;
6394;SDS011;3230;42.588;23.358;2022-12-04T07:45:41;4.80;;;2.80;;
6394;SDS011;3230;42.588;23.358;2022-12-04T07:48:06;10.33;;;5.23;;
6394;SDS011;3230;42.588;23.358;2022-12-04T07:50:32;6.37;;;3.83;;
6394;SDS011;3230;42.588;23.358;2022-12-04T07:52:57;9.13;;;6.40;;
6394;SDS011;3230;42.588;23.358;2022-12-04T07:55:23;6.97;;;4.47;;
6394;SDS011;3230;42.588;23.358;2022-12-04T07:57:48;5.73;;;3.67;;
6394;SDS011;3230;42.588;23.358;2022-12-04T08:00:14;15.63;;;6.33;;
6394;SDS011;3230;42.588;23.358;2022-12-04T08:02:40;9.55;;;4.88;;
6394;SDS011;3230;42.588;23.358;2022-12-04T08:05:05;4.80;;;3.33;;
6394;SDS011;3230;42.588;23.358;2022-12-04T08:07:31;4.50;;;3.27;;
6394;SDS011;3230;42.588;23.358;2022-12-04T08:09:56;15.00;;;5.60;;
6394;SDS011;3230;42.588;23.358;2022-12-04T08:12:22;13.80;;;5.47;;
6394;SDS011;3230;42.588;23.358;2022-12-04T08:14:51;7.43;;;4.63;;
6394;SDS011;3230;42.588;23.358;2022-12-04T08:17:16;5.03;;;2.95;;
6394;SDS011;3230;42.588;23.358;2022-12-04T08:19:41;10.43;;;5.23;;
6394;SDS011;3230;42.588;23.358;2022-12-04T08:22:07;3.03;;;2.50;;
6394;SDS011;3230;42.588;23.358;2022-12-04T08:24:33;3.27;;;2.97;;
6394;SDS011;3230;42.588;23.358;2022-12-04T08:26:58;2.60;;;2.33;;
6394;SDS011;3230;42.588;23.358;2022-12-04T08:29:23;4.20;;;3.37;;
6394;SDS011;3230;42.588;23.358;2022-12-04T08:31:49;5.13;;;3.50;;
6394;SDS011;3230;42.588;23.358;2022-12-04T08:34:14;5.53;;;3.27;;
6394;SDS011;3230;42.588;23.358;2022-12-04T08:36:40;8.00;;;4.50;;
6394;SDS011;3230;42.588;23.358;2022-12-04T08:39:05;10.20;;;5.33;;
6394;SDS011;3230;42.588;23.358;2022-12-04T08:41:31;6.32;;;3.78;;
6394;SDS011;3230;42.588;23.358;2022-12-04T08:43:57;4.67;;;3.20;;
6394;SDS011;3230;42.588;23.358;2022-12-04T08:46:24;2.97;;;2.43;;
6394;SDS011;3230;42.588;23.358;2022-12-04T08:48:51;7.10;;;3.00;;
6394;SDS011;3230;42.588;23.358;2022-12-04T08:51:18;3.97;;;2.55;;
6394;SDS011;3230;42.588;23.358;2022-12-04T08:53:45;5.53;;;3.15;;
6394;SDS011;3230;42.588;23.358;2022-12-04T08:56:11;3.83;;;2.90;;
6394;SDS011;3230;42.588;23.358;2022-12-04T08:58:37;6.40;;;4.07;;
6394;SDS011;3230;42.588;23.358;2022-12-04T09:01:07;8.87;;;5.20;;
6394;SDS011;3230;42.588;23.358;2022-12-04T09:03:35;9.55;;;5.75;;
6394;SDS011;3230;42.588;23.358;2022-12-04T09:06:01;9.10;;;4.80;;
6394;SDS011;3230;42.588;23.358;2022-12-04T09:08:29;5.50;;;2.92;;
6394;SDS011;3230;42.588;23.358;2022-12-04T09:11:00;7.20;;;4.00;;
6394;SDS011;3230;42.588;23.358;2022-12-04T09:13:39;3.50;;;3.00;;
6394;SDS011;3230;42.588;23.358;2022-12-04T09:16:06;8.93;;;4.00;;
6394;SDS011;3230;42.588;23.358;2022-12-04T09:18:35;9.02;;;4.60;;
6394;SDS011;3230;42.588;23.358;2022-12-04T09:21:02;16.50;;;6.43;;
6394;SDS011;3230;42.588;23.358;2022-12-04T09:23:30;7.63;;;4.20;;
6394;SDS011;3230;42.588;23.358;2022-12-04T09:25:55;10.00;;;5.60;;
6394;SDS011;3230;42.588;23.358;2022-12-04T09:28:21;8.17;;;3.97;;
6394;SDS011;3230;42.588;23.358;2022-12-04T09:30:56;4.30;;;3.20;;
6394;SDS011;3230;42.588;23.358;2022-12-04T09:33:23;6.43;;;3.93;;
6394;SDS011;3230;42.588;23.358;2022-12-04T09:35:48;7.40;;;4.77;;
6394;SDS011;3230;42.588;23.358;2022-12-04T09:38:14;7.37;;;4.47;;
6394;SDS011;3230;42.588;23.358;2022-12-04T09:41:13;5.43;;;3.30;;
6394;SDS011;3230;42.588;23.358;2022-12-04T09:44:36;27.97;;;15.23;;
6394;SDS011;3230;42.588;23.358;2022-12-04T09:46:58;6.05;;;3.83;;
6394;SDS011;3230;42.588;23.358;2022-12-04T09:49:25;3.25;;;2.53;;
6394;SDS011;3230;42.588;23.358;2022-12-04T09:51:53;5.43;;;4.13;;
6394;SDS011;3230;42.588;23.358;2022-12-04T09:54:25;8.13;;;5.45;;
6394;SDS011;3230;42.588;23.358;2022-12-04T09:56:56;4.80;;;2.90;;
6394;SDS011;3230;42.588;23.358;2022-12-04T09:59:25;4.32;;;3.17;;
6394;SDS011;3230;42.588;23.358;2022-12-04T10:04:27;6.43;;;4.27;;
6394;SDS011;3230;42.588;23.358;2022-12-04T10:09:44;3.20;;;2.90;;
6394;SDS011;3230;42.588;23.358;2022-12-04T10:12:40;4.22;;;3.35;;
6394;SDS011;3230;42.588;23.358;2022-12-04T10:21:02;4.97;;;3.88;;
6394;SDS011;3230;42.588;23.358;2022-12-04T10:26:15;9.80;;;5.78;;
6394;SDS011;3230;42.588;23.358;2022-12-04T10:29:03;10.75;;;6.65;;
6394;SDS011;3230;42.588;23.358;2022-12-04T10:31:31;11.18;;;7.00;;
6394;SDS011;3230;42.588;23.358;2022-12-04T10:34:04;5.30;;;3.58;;
6394;SDS011;3230;42.588;23.358;2022-12-04T10:36:37;6.97;;;4.00;;
6394;SDS011;3230;42.588;23.358;2022-12-04T10:41:59;14.13;;;5.60;;
6394;SDS011;3230;42.588;23.358;2022-12-04T10:44:27;5.05;;;3.85;;
6394;SDS011;3230;42.588;23.358;2022-12-04T10:46:57;7.03;;;4.30;;
6394;SDS011;3230;42.588;23.358;2022-12-04T10:49:26;13.43;;;6.50;;
6394;SDS011;3230;42.588;23.358;2022-12-04T10:51:53;21.50;;;10.97;;
6394;SDS011;3230;42.588;23.358;2022-12-04T10:54:29;40.67;;;17.50;;
6394;SDS011;3230;42.588;23.358;2022-12-04T10:59:28;42.33;;;20.63;;
6394;SDS011;3230;42.588;23.358;2022-12-04T11:04:54;9.00;;;5.43;;
6394;SDS011;3230;42.588;23.358;2022-12-04T11:13:32;16.00;;;8.52;;
6394;SDS011;3230;42.588;23.358;2022-12-04T11:15:47;8.70;;;5.40;;
6394;SDS011;3230;42.588;23.358;2022-12-04T11:18:27;7.80;;;5.90;;
6394;SDS011;3230;42.588;23.358;2022-12-04T11:21:02;13.70;;;8.15;;
6394;SDS011;3230;42.588;23.358;2022-12-04T11:23:32;17.88;;;9.68;;
6394;SDS011;3230;42.588;23.358;2022-12-04T11:26:05;12.90;;;7.03;;
6394;SDS011;3230;42.588;23.358;2022-12-04T11:28:31;12.53;;;8.00;;
6394;SDS011;3230;42.588;23.358;2022-12-04T11:30:59;10.63;;;6.60;;
6394;SDS011;3230;42.588;23.358;2022-12-04T11:35:58;12.73;;;7.43;;
6394;SDS011;3230;42.588;23.358;2022-12-04T11:38:27;15.60;;;7.73;;
6394;SDS011;3230;42.588;23.358;2022-12-04T11:40:55;12.63;;;5.95;;
6394;SDS011;3230;42.588;23.358;2022-12-04T11:43:27;14.05;;;6.60;;
6394;SDS011;3230;42.588;23.358;2022-12-04T11:46:04;20.58;;;9.77;;
6394;SDS011;3230;42.588;23.358;2022-12-04T11:48:31;19.13;;;10.43;;
6394;SDS011;3230;42.588;23.358;2022-12-04T11:51:12;16.63;;;10.00;;
6394;SDS011;3230;42.588;23.358;2022-12-04T11:54:15;18.85;;;9.93;;
6394;SDS011;3230;42.588;23.358;2022-12-04T11:57:01;17.80;;;9.35;;
6394;SDS011;3230;42.588;23.358;2022-12-04T12:08:50;13.20;;;6.10;;
6394;SDS011;3230;42.588;23.358;2022-12-04T12:24:29;11.15;;;5.93;;
6394;SDS011;3230;42.588;23.358;2022-12-04T12:33:14;9.55;;;5.13;;
6394;SDS011;3230;42.588;23.358;2022-12-04T12:35:53;9.80;;;5.00;;
6394;SDS011;3230;42.588;23.358;2022-12-04T12:41:11;8.55;;;5.47;;
6394;SDS011;3230;42.588;23.358;2022-12-04T12:43:46;13.77;;;6.50;;
6394;SDS011;3230;42.588;23.358;2022-12-04T12:46:31;5.78;;;3.90;;
6394;SDS011;3230;42.588;23.358;2022-12-04T12:52:10;6.60;;;4.60;;
6394;SDS011;3230;42.588;23.358;2022-12-04T12:54:49;9.10;;;5.22;;
6394;SDS011;3230;42.588;23.358;2022-12-04T12:57:32;5.28;;;3.67;;
6394;SDS011;3230;42.588;23.358;2022-12-04T13:02:57;11.35;;;5.85;;
6394;SDS011;3230;42.588;23.358;2022-12-04T13:05:32;17.90;;;7.32;;
6394;SDS011;3230;42.588;23.358;2022-12-04T13:13:33;9.73;;;5.97;;
6394;SDS011;3230;42.588;23.358;2022-12-04T13:18:39;23.20;;;10.13;;
6394;SDS011;3230;42.588;23.358;2022-12-04T13:21:25;27.67;;;12.48;;
6394;SDS011;3230;42.588;23.358;2022-12-04T13:27:03;13.40;;;7.10;;
6394;SDS011;3230;42.588;23.358;2022-12-04T13:40:38;13.60;;;7.80;;
6394;SDS011;3230;42.588;23.358;2022-12-04T13:45:43;9.27;;;6.07;;
6394;SDS011;3230;42.588;23.358;2022-12-04T13:48:09;9.75;;;5.03;;
6394;SDS011;3230;42.588;23.358;2022-12-04T13:50:36;11.27;;;5.70;;
6394;SDS011;3230;42.588;23.358;2022-12-04T13:53:04;5.28;;;3.92;;
6394;SDS011;3230;42.588;23.358;2022-12-04T13:55:32;5.80;;;4.10;;
6394;SDS011;3230;42.588;23.358;2022-12-04T13:58:21;6.22;;;4.13;;
6394;SDS011;3230;42.588;23.358;2022-12-04T14:01:03;11.48;;;6.20;;
6394;SDS011;3230;42.588;23.358;2022-12-04T14:03:47;20.60;;;10.02;;
6394;SDS011;3230;42.588;23.358;2022-12-04T14:06:19;14.45;;;7.90;;
6394;SDS011;3230;42.588;23.358;2022-12-04T14:08:52;23.02;;;9.93;;
6394;SDS011;3230;42.588;23.358;2022-12-04T14:11:20;16.88;;;9.13;;
6394;SDS011;3230;42.588;23.358;2022-12-04T14:13:48;15.30;;;8.13;;
6394;SDS011;3230;42.588;23.358;2022-12-04T14:16:17;24.77;;;12.10;;
6394;SDS011;3230;42.588;23.358;2022-12-04T14:18:50;13.55;;;8.68;;
6394;SDS011;3230;42.588;23.358;2022-12-04T14:21:19;18.05;;;10.27;;
6394;SDS011;3230;42.588;23.358;2022-12-04T14:23:44;21.70;;;11.27;;
6394;SDS011;3230;42.588;23.358;2022-12-04T14:26:27;28.70;;;13.30;;
6394;SDS011;3230;42.588;23.358;2022-12-04T14:31:52;13.73;;;7.63;;
6394;SDS011;3230;42.588;23.358;2022-12-04T14:34:22;14.05;;;7.18;;
6394;SDS011;3230;42.588;23.358;2022-12-04T14:36:58;7.82;;;4.30;;
6394;SDS011;3230;42.588;23.358;2022-12-04T14:42:03;11.07;;;5.35;;
6394;SDS011;3230;42.588;23.358;2022-12-04T14:44:31;16.08;;;8.63;;
6394;SDS011;3230;42.588;23.358;2022-12-04T14:47:03;19.90;;;9.70;;
6394;SDS011;3230;42.588;23.358;2022-12-04T14:50:03;18.45;;;6.70;;
6394;SDS011;3230;42.588;23.358;2022-12-04T14:58:00;17.52;;;8.63;;
6394;SDS011;3230;42.588;23.358;2022-12-04T15:00:50;25.45;;;12.20;;
6394;SDS011;3230;42.588;23.358;2022-12-04T15:03:17;21.10;;;11.02;;
6394;SDS011;3230;42.588;23.358;2022-12-04T15:05:43;25.33;;;10.13;;
6394;SDS011;3230;42.588;23.358;2022-12-04T15:08:09;19.92;;;9.55;;
6394;SDS011;3230;42.588;23.358;2022-12-04T15:10:37;22.35;;;10.20;;
6394;SDS011;3230;42.588;23.358;2022-12-04T15:13:26;17.30;;;8.90;;
6394;SDS011;3230;42.588;23.358;2022-12-04T15:15:53;15.10;;;8.38;;
6394;SDS011;3230;42.588;23.358;2022-12-04T15:18:18;21.77;;;12.40;;
6394;SDS011;3230;42.588;23.358;2022-12-04T15:23:16;17.95;;;9.45;;
6394;SDS011;3230;42.588;23.358;2022-12-04T15:25:43;45.63;;;16.55;;
6394;SDS011;3230;42.588;23.358;2022-12-04T15:28:25;36.33;;;15.10;;
6394;SDS011;3230;42.588;23.358;2022-12-04T15:31:01;18.10;;;8.70;;
6394;SDS011;3230;42.588;23.358;2022-12-04T15:33:34;16.73;;;9.18;;
6394;SDS011;3230;42.588;23.358;2022-12-04T15:36:03;22.98;;;10.68;;
6394;SDS011;3230;42.588;23.358;2022-12-04T15:38:33;20.58;;;10.18;;
6394;SDS011;3230;42.588;23.358;2022-12-04T15:40:59;12.57;;;6.20;;
6394;SDS011;3230;42.588;23.358;2022-12-04T15:43:37;18.63;;;7.50;;
6394;SDS011;3230;42.588;23.358;2022-12-04T15:46:19;15.32;;;7.90;;
6394;SDS011;3230;42.588;23.358;2022-12-04T15:48:46;17.67;;;7.60;;
6394;SDS011;3230;42.588;23.358;2022-12-04T15:51:12;20.10;;;10.20;;
6394;SDS011;3230;42.588;23.358;2022-12-04T15:53:42;15.55;;;8.23;;
6394;SDS011;3230;42.588;23.358;2022-12-04T15:56:16;12.13;;;6.30;;
6394;SDS011;3230;42.588;23.358;2022-12-04T15:59:02;10.23;;;5.05;;
6394;SDS011;3230;42.588;23.358;2022-12-04T16:01:36;16.73;;;7.57;;
6394;SDS011;3230;42.588;23.358;2022-12-04T16:04:03;15.35;;;9.00;;
6394;SDS011;3230;42.588;23.358;2022-12-04T16:06:30;15.97;;;7.93;;
6394;SDS011;3230;42.588;23.358;2022-12-04T16:09:11;20.35;;;8.95;;
6394;SDS011;3230;42.588;23.358;2022-12-04T16:11:42;22.45;;;9.45;;
6394;SDS011;3230;42.588;23.358;2022-12-04T16:16:34;9.33;;;5.27;;
6394;SDS011;3230;42.588;23.358;2022-12-04T16:19:07;10.32;;;5.90;;
6394;SDS011;3230;42.588;23.358;2022-12-04T16:21:40;9.20;;;5.75;;
6394;SDS011;3230;42.588;23.358;2022-12-04T16:24:06;6.43;;;4.30;;
6394;SDS011;3230;42.588;23.358;2022-12-04T16:26:34;4.25;;;3.13;;
6394;SDS011;3230;42.588;23.358;2022-12-04T16:29:00;16.50;;;5.73;;
6394;SDS011;3230;42.588;23.358;2022-12-04T16:31:25;9.00;;;5.20;;
6394;SDS011;3230;42.588;23.358;2022-12-04T16:33:51;7.87;;;4.23;;
6394;SDS011;3230;42.588;23.358;2022-12-04T16:36:16;12.87;;;6.13;;
6394;SDS011;3230;42.588;23.358;2022-12-04T16:38:42;8.20;;;5.53;;
6394;SDS011;3230;42.588;23.358;2022-12-04T16:41:14;10.67;;;5.70;;
6394;SDS011;3230;42.588;23.358;2022-12-04T16:43:41;8.98;;;5.53;;
6394;SDS011;3230;42.588;23.358;2022-12-04T16:46:14;5.10;;;3.77;;
6394;SDS011;3230;42.588;23.358;2022-12-04T16:48:40;15.80;;;9.43;;
6394;SDS011;3230;42.588;23.358;2022-12-04T16:51:09;7.32;;;4.55;;
6394;SDS011;3230;42.588;23.358;2022-12-04T16:53:41;9.65;;;5.78;;
6394;SDS011;3230;42.588;23.358;2022-12-04T16:56:07;9.57;;;4.73;;
6394;SDS011;3230;42.588;23.358;2022-12-04T16:58:32;12.48;;;7.32;;
6394;SDS011;3230;42.588;23.358;2022-12-04T17:00:58;15.40;;;8.67;;
6394;SDS011;3230;42.588;23.358;2022-12-04T17:03:25;10.37;;;5.73;;
6394;SDS011;3230;42.588;23.358;2022-12-04T17:05:52;8.75;;;5.55;;
6394;SDS011;3230;42.588;23.358;2022-12-04T17:08:17;12.50;;;6.50;;
6394;SDS011;3230;42.588;23.358;2022-12-04T17:10:43;10.50;;;7.03;;
6394;SDS011;3230;42.588;23.358;2022-12-04T17:13:09;11.83;;;6.67;;
6394;SDS011;3230;42.588;23.358;2022-12-04T17:15:34;8.00;;;5.17;;
6394;SDS011;3230;42.588;23.358;2022-12-04T17:18:00;14.27;;;7.83;;
6394;SDS011;3230;42.588;23.358;2022-12-04T17:20:26;14.77;;;7.27;;
6394;SDS011;3230;42.588;23.358;2022-12-04T17:22:51;7.83;;;4.53;;
6394;SDS011;3230;42.588;23.358;2022-12-04T17:25:17;20.00;;;8.60;;
6394;SDS011;3230;42.588;23.358;2022-12-04T17:27:42;27.17;;;13.20;;
6394;SDS011;3230;42.588;23.358;2022-12-04T17:30:08;13.17;;;6.30;;
6394;SDS011;3230;42.588;23.358;2022-12-04T17:32:34;11.90;;;6.07;;
6394;SDS011;3230;42.588;23.358;2022-12-04T17:35:00;13.50;;;7.47;;
6394;SDS011;3230;42.588;23.358;2022-12-04T17:37:27;12.45;;;4.95;;
6394;SDS011;3230;42.588;23.358;2022-12-04T17:39:52;31.13;;;13.00;;
6394;SDS011;3230;42.588;23.358;2022-12-04T17:42:18;41.40;;;15.60;;
6394;SDS011;3230;42.588;23.358;2022-12-04T17:44:43;14.77;;;7.70;;